Terminal Aerodrome Forecast
Issued by NWS

Home | Current Version | Previous Version | Text Only | Print | Product List | Glossary On
Versions: 1 2 3 4 5 6 7 8 9 10 11 12 13 14 15 16 17 18
000
FTUS46 KMTR 211747
TAFSTS
TAF
KSTS 211747Z 2118/2218 19007KT P6SM VCSH SCT030 BKN050
     FM220100 17010KT 4SM -RA BR OVC020
     FM220600 14015G25KT 2SM +RA BR OVC015 WS020/17040KT
     FM220900 15020G30KT 2SM +RA BR OVC012 WS020/17050KT
     FM221200 17010KT 2SM +RA BR OVC010
     FM221400 17005KT 5SM -RA BR OVC010=

USA.gov is the U.S. government's official web portal to all federal, state and local government web resources and services.